sensor_id;sensor_type;location;lat;lon;timestamp;pressure;altitude;pressure_sealevel;temperature;humidity
73103;BME280;61294;65.988;29.172;2023-01-06T00:01:32;99464.47;;;-18.69;96.97
73103;BME280;61294;65.988;29.172;2023-01-06T00:03:58;99459.38;;;-18.77;97.11
73103;BME280;61294;65.988;29.172;2023-01-06T00:06:25;99470.19;;;-18.70;96.79
73103;BME280;61294;65.988;29.172;2023-01-06T00:09:00;99503.66;;;-18.50;96.79
73103;BME280;61294;65.988;29.172;2023-01-06T00:11:27;99472.72;;;-18.63;96.88
73103;BME280;61294;65.988;29.172;2023-01-06T00:13:54;99513.72;;;-18.50;96.59
73103;BME280;61294;65.988;29.172;2023-01-06T00:16:21;99515.50;;;-18.56;96.61
73103;BME280;61294;65.988;29.172;2023-01-06T00:18:47;99463.34;;;-18.79;95.98
73103;BME280;61294;65.988;29.172;2023-01-06T00:21:14;99505.41;;;-18.63;96.07
73103;BME280;61294;65.988;29.172;2023-01-06T00:23:40;99516.75;;;-18.52;96.66
73103;BME280;61294;65.988;29.172;2023-01-06T00:26:07;99506.31;;;-18.55;96.27
73103;BME280;61294;65.988;29.172;2023-01-06T00:28:33;99515.16;;;-18.52;96.32
73103;BME280;61294;65.988;29.172;2023-01-06T00:31:05;99510.81;;;-18.53;96.43
73103;BME280;61294;65.988;29.172;2023-01-06T00:33:32;99512.66;;;-18.45;96.20
73103;BME280;61294;65.988;29.172;2023-01-06T00:35:58;99505.88;;;-18.31;96.46
73103;BME280;61294;65.988;29.172;2023-01-06T00:38:24;99466.00;;;-18.28;97.04
73103;BME280;61294;65.988;29.172;2023-01-06T00:40:50;99449.66;;;-18.32;96.99
73103;BME280;61294;65.988;29.172;2023-01-06T00:43:15;99460.47;;;-18.11;97.55
73103;BME280;61294;65.988;29.172;2023-01-06T00:45:41;99469.13;;;-18.02;97.79
73103;BME280;61294;65.988;29.172;2023-01-06T00:48:07;99475.75;;;-18.02;97.88
73103;BME280;61294;65.988;29.172;2023-01-06T00:50:33;99504.88;;;-17.68;98.47
73103;BME280;61294;65.988;29.172;2023-01-06T00:52:58;99490.88;;;-17.74;97.96
73103;BME280;61294;65.988;29.172;2023-01-06T00:55:24;99509.75;;;-17.63;98.64
73103;BME280;61294;65.988;29.172;2023-01-06T00:57:51;99504.53;;;-17.64;98.30
73103;BME280;61294;65.988;29.172;2023-01-06T01:00:17;99468.97;;;-17.96;97.98
73103;BME280;61294;65.988;29.172;2023-01-06T01:02:43;99504.53;;;-17.79;98.45
73103;BME280;61294;65.988;29.172;2023-01-06T01:05:09;99461.06;;;-17.99;98.67
73103;BME280;61294;65.988;29.172;2023-01-06T01:07:35;99509.53;;;-17.86;98.52
73103;BME280;61294;65.988;29.172;2023-01-06T01:10:01;99490.13;;;-18.01;98.05
73103;BME280;61294;65.988;29.172;2023-01-06T01:12:27;99446.25;;;-18.32;97.40
73103;BME280;61294;65.988;29.172;2023-01-06T01:14:53;99460.91;;;-18.50;97.17
73103;BME280;61294;65.988;29.172;2023-01-06T01:17:30;99451.06;;;-18.41;97.48
73103;BME280;61294;65.988;29.172;2023-01-06T01:19:56;99494.94;;;-18.25;97.37
73103;BME280;61294;65.988;29.172;2023-01-06T01:22:24;99498.69;;;-18.28;97.53
73103;BME280;61294;65.988;29.172;2023-01-06T01:24:51;99499.94;;;-18.39;97.19
73103;BME280;61294;65.988;29.172;2023-01-06T01:27:18;99482.69;;;-18.43;97.56
73103;BME280;61294;65.988;29.172;2023-01-06T01:29:44;99508.72;;;-18.43;97.48
73103;BME280;61294;65.988;29.172;2023-01-06T01:32:10;99459.50;;;-18.55;97.35
73103;BME280;61294;65.988;29.172;2023-01-06T01:34:36;99513.72;;;-18.50;96.93
73103;BME280;61294;65.988;29.172;2023-01-06T01:37:02;99457.56;;;-18.85;96.78
73103;BME280;61294;65.988;29.172;2023-01-06T01:39:29;99473.06;;;-18.67;97.03
73103;BME280;61294;65.988;29.172;2023-01-06T01:41:56;99515.81;;;-18.60;96.33
73103;BME280;61294;65.988;29.172;2023-01-06T01:44:55;99493.44;;;-18.44;97.00
73103;BME280;61294;65.988;29.172;2023-01-06T01:49:52;99474.59;;;-18.48;97.11
73103;BME280;61294;65.988;29.172;2023-01-06T01:52:20;99512.03;;;-18.15;97.05
73103;BME280;61294;65.988;29.172;2023-01-06T01:54:48;99517.09;;;-18.00;97.11
73103;BME280;61294;65.988;29.172;2023-01-06T01:57:19;99519.97;;;-17.83;97.42
73103;BME280;61294;65.988;29.172;2023-01-06T01:59:46;99525.94;;;-17.82;97.68
73103;BME280;61294;65.988;29.172;2023-01-06T02:02:14;99529.16;;;-17.69;97.43
73103;BME280;61294;65.988;29.172;2023-01-06T02:04:44;99521.97;;;-17.66;97.75
73103;BME280;61294;65.988;29.172;2023-01-06T02:07:12;99489.25;;;-17.73;97.67
73103;BME280;61294;65.988;29.172;2023-01-06T02:10:12;99487.09;;;-17.99;97.04
73103;BME280;61294;65.988;29.172;2023-01-06T02:12:39;99529.00;;;-17.70;96.82
73103;BME280;61294;65.988;29.172;2023-01-06T02:15:24;99499.84;;;-17.83;96.78
73103;BME280;61294;65.988;29.172;2023-01-06T02:37:04;99532.22;;;-17.35;97.92
73103;BME280;61294;65.988;29.172;2023-01-06T02:39:46;99511.72;;;-17.31;98.02
73103;BME280;61294;65.988;29.172;2023-01-06T02:42:26;99522.19;;;-17.28;97.98
73103;BME280;61294;65.988;29.172;2023-01-06T02:47:31;99480.44;;;-17.33;98.38
73103;BME280;61294;65.988;29.172;2023-01-06T02:50:25;99485.63;;;-17.25;98.33
73103;BME280;61294;65.988;29.172;2023-01-06T02:55:50;99526.84;;;-17.10;98.36
73103;BME280;61294;65.988;29.172;2023-01-06T03:01:10;99490.81;;;-17.09;98.60
73103;BME280;61294;65.988;29.172;2023-01-06T03:03:38;99488.69;;;-17.27;98.04
73103;BME280;61294;65.988;29.172;2023-01-06T03:06:09;99469.47;;;-17.48;98.10
73103;BME280;61294;65.988;29.172;2023-01-06T03:08:37;99519.81;;;-17.12;97.98
73103;BME280;61294;65.988;29.172;2023-01-06T03:11:05;99458.47;;;-17.27;98.27
73103;BME280;61294;65.988;29.172;2023-01-06T03:13:41;99506.09;;;-17.00;98.35
73103;BME280;61294;65.988;29.172;2023-01-06T03:16:09;99443.56;;;-17.40;98.06
73103;BME280;61294;65.988;29.172;2023-01-06T03:18:37;99508.63;;;-17.07;98.06
73103;BME280;61294;65.988;29.172;2023-01-06T03:21:08;99491.75;;;-17.08;98.07
73103;BME280;61294;65.988;29.172;2023-01-06T03:23:38;99488.66;;;-16.98;98.33
73103;BME280;61294;65.988;29.172;2023-01-06T03:26:05;99456.13;;;-17.18;98.18
73103;BME280;61294;65.988;29.172;2023-01-06T03:28:30;99452.53;;;-17.21;98.02
73103;BME280;61294;65.988;29.172;2023-01-06T03:33:55;99473.16;;;-16.94;98.46
73103;BME280;61294;65.988;29.172;2023-01-06T03:39:14;99483.59;;;-16.98;98.12
73103;BME280;61294;65.988;29.172;2023-01-06T03:41:48;99492.78;;;-16.99;98.07
73103;BME280;61294;65.988;29.172;2023-01-06T03:47:20;99437.06;;;-17.16;98.29
73103;BME280;61294;65.988;29.172;2023-01-06T03:50:03;99487.38;;;-16.88;98.68
73103;BME280;61294;65.988;29.172;2023-01-06T03:52:36;99488.22;;;-16.87;98.56
73103;BME280;61294;65.988;29.172;2023-01-06T03:55:14;99442.22;;;-17.00;98.53
73103;BME280;61294;65.988;29.172;2023-01-06T03:57:51;99440.78;;;-17.06;98.44
73103;BME280;61294;65.988;29.172;2023-01-06T04:00:23;99478.34;;;-16.86;98.69
73103;BME280;61294;65.988;29.172;2023-01-06T04:02:51;99421.41;;;-17.14;98.47
73103;BME280;61294;65.988;29.172;2023-01-06T04:05:19;99444.75;;;-17.08;98.79
73103;BME280;61294;65.988;29.172;2023-01-06T04:07:46;99441.38;;;-17.08;98.50
73103;BME280;61294;65.988;29.172;2023-01-06T04:10:14;99473.66;;;-16.82;98.57
73103;BME280;61294;65.988;29.172;2023-01-06T04:12:40;99413.09;;;-17.13;98.99
73103;BME280;61294;65.988;29.172;2023-01-06T04:15:20;99457.97;;;-16.73;99.53
73103;BME280;61294;65.988;29.172;2023-01-06T04:17:47;99420.63;;;-16.91;99.33
73103;BME280;61294;65.988;29.172;2023-01-06T04:20:18;99421.88;;;-16.95;99.36
73103;BME280;61294;65.988;29.172;2023-01-06T04:22:44;99475.59;;;-16.65;99.49
73103;BME280;61294;65.988;29.172;2023-01-06T04:25:10;99439.97;;;-16.83;99.63
73103;BME280;61294;65.988;29.172;2023-01-06T04:27:36;99408.72;;;-16.92;99.64
73103;BME280;61294;65.988;29.172;2023-01-06T04:30:03;99410.44;;;-16.77;99.78
73103;BME280;61294;65.988;29.172;2023-01-06T04:32:29;99400.34;;;-16.77;99.68
73103;BME280;61294;65.988;29.172;2023-01-06T04:34:55;99450.84;;;-16.54;99.89
73103;BME280;61294;65.988;29.172;2023-01-06T04:37:21;99427.25;;;-16.54;100.00
73103;BME280;61294;65.988;29.172;2023-01-06T04:39:46;99436.41;;;-16.47;99.86
73103;BME280;61294;65.988;29.172;2023-01-06T04:42:12;99399.16;;;-16.57;100.00
73103;BME280;61294;65.988;29.172;2023-01-06T04:44:38;99382.13;;;-16.67;100.00
73103;BME280;61294;65.988;29.172;2023-01-06T04:47:04;99386.72;;;-16.56;100.00
73103;BME280;61294;65.988;29.172;2023-01-06T04:49:29;99394.28;;;-16.56;100.00
73103;BME280;61294;65.988;29.172;2023-01-06T04:51:55;99424.69;;;-16.47;100.00
73103;BME280;61294;65.988;29.172;2023-01-06T04:54:21;99384.41;;;-16.61;100.00
73103;BME280;61294;65.988;29.172;2023-01-06T04:56:47;99347.03;;;-16.80;100.00
73103;BME280;61294;65.988;29.172;2023-01-06T04:59:12;99412.81;;;-16.48;100.00
73103;BME280;61294;65.988;29.172;2023-01-06T05:01:38;99380.31;;;-16.68;100.00
73103;BME280;61294;65.988;29.172;2023-01-06T05:04:04;99395.03;;;-16.57;99.92
73103;BME280;61294;65.988;29.172;2023-01-06T05:06:34;99431.69;;;-16.44;99.68
73103;BME280;61294;65.988;29.172;2023-01-06T05:09:00;99385.94;;;-16.78;100.00
73103;BME280;61294;65.988;29.172;2023-01-06T05:11:26;99426.09;;;-16.42;99.83
73103;BME280;61294;65.988;29.172;2023-01-06T05:13:52;99417.44;;;-16.37;100.00
73103;BME280;61294;65.988;29.172;2023-01-06T05:16:28;99414.38;;;-16.34;100.00
73103;BME280;61294;65.988;29.172;2023-01-06T05:18:54;99424.06;;;-16.30;100.00
73103;BME280;61294;65.988;29.172;2023-01-06T05:21:21;99409.31;;;-16.34;99.69
73103;BME280;61294;65.988;29.172;2023-01-06T05:23:49;99424.41;;;-16.27;100.00
73103;BME280;61294;65.988;29.172;2023-01-06T05:26:24;99422.06;;;-16.25;100.00
73103;BME280;61294;65.988;29.172;2023-01-06T05:28:50;99419.88;;;-16.22;100.00
73103;BME280;61294;65.988;29.172;2023-01-06T05:31:16;99417.34;;;-16.22;100.00
73103;BME280;61294;65.988;29.172;2023-01-06T05:33:42;99410.09;;;-16.19;100.00
73103;BME280;61294;65.988;29.172;2023-01-06T05:36:11;99361.78;;;-16.38;100.00
73103;BME280;61294;65.988;29.172;2023-01-06T05:38:37;99423.81;;;-16.17;100.00
73103;BME280;61294;65.988;29.172;2023-01-06T05:41:03;99412.41;;;-16.13;100.00
73103;BME280;61294;65.988;29.172;2023-01-06T05:43:31;99358.88;;;-16.34;100.00
73103;BME280;61294;65.988;29.172;2023-01-06T05:45:57;99413.84;;;-16.08;100.00
73103;BME280;61294;65.988;29.172;2023-01-06T05:48:24;99393.66;;;-16.08;100.00
73103;BME280;61294;65.988;29.172;2023-01-06T05:50:50;99372.09;;;-16.21;100.00
73103;BME280;61294;65.988;29.172;2023-01-06T05:53:16;99401.72;;;-16.04;100.00
73103;BME280;61294;65.988;29.172;2023-01-06T05:55:42;99373.94;;;-16.27;100.00
73103;BME280;61294;65.988;29.172;2023-01-06T05:58:08;99392.00;;;-16.08;100.00
73103;BME280;61294;65.988;29.172;2023-01-06T06:00:34;99394.88;;;-16.05;100.00
73103;BME280;61294;65.988;29.172;2023-01-06T06:03:00;99361.13;;;-16.21;100.00
73103;BME280;61294;65.988;29.172;2023-01-06T06:05:25;99401.00;;;-16.03;100.00
73103;BME280;61294;65.988;29.172;2023-01-06T06:07:55;99402.56;;;-15.96;100.00
73103;BME280;61294;65.988;29.172;2023-01-06T06:10:21;99363.19;;;-16.10;100.00
73103;BME280;61294;65.988;29.172;2023-01-06T06:12:49;99396.94;;;-15.93;100.00
73103;BME280;61294;65.988;29.172;2023-01-06T06:15:17;99388.44;;;-15.87;100.00
73103;BME280;61294;65.988;29.172;2023-01-06T06:17:43;99375.97;;;-15.85;100.00
73103;BME280;61294;65.988;29.172;2023-01-06T06:20:09;99386.78;;;-15.86;100.00
73103;BME280;61294;65.988;29.172;2023-01-06T06:22:34;99382.13;;;-15.90;100.00
73103;BME280;61294;65.988;29.172;2023-01-06T06:25:00;99386.47;;;-15.89;100.00
73103;BME280;61294;65.988;29.172;2023-01-06T06:27:27;99386.13;;;-15.92;100.00
73103;BME280;61294;65.988;29.172;2023-01-06T06:29:52;99340.50;;;-16.10;100.00
73103;BME280;61294;65.988;29.172;2023-01-06T06:32:18;99380.53;;;-15.90;100.00
73103;BME280;61294;65.988;29.172;2023-01-06T06:34:44;99324.09;;;-16.13;100.00
73103;BME280;61294;65.988;29.172;2023-01-06T06:37:10;99339.06;;;-16.15;100.00
73103;BME280;61294;65.988;29.172;2023-01-06T06:39:35;99335.06;;;-16.13;100.00
73103;BME280;61294;65.988;29.172;2023-01-06T06:42:01;99341.53;;;-16.08;100.00
73103;BME280;61294;65.988;29.172;2023-01-06T06:44:27;99359.31;;;-15.99;100.00
73103;BME280;61294;65.988;29.172;2023-01-06T06:46:52;99358.91;;;-15.95;100.00
73103;BME280;61294;65.988;29.172;2023-01-06T06:49:18;99381.09;;;-15.92;100.00
73103;BME280;61294;65.988;29.172;2023-01-06T06:51:44;99376.13;;;-15.84;100.00
73103;BME280;61294;65.988;29.172;2023-01-06T06:54:12;99377.38;;;-15.80;100.00
73103;BME280;61294;65.988;29.172;2023-01-06T06:56:38;99304.78;;;-16.13;100.00
73103;BME280;61294;65.988;29.172;2023-01-06T06:59:04;99370.44;;;-15.74;100.00
73103;BME280;61294;65.988;29.172;2023-01-06T07:01:30;99335.47;;;-15.94;100.00
73103;BME280;61294;65.988;29.172;2023-01-06T07:03:59;99340.69;;;-15.92;100.00
73103;BME280;61294;65.988;29.172;2023-01-06T07:06:25;99326.50;;;-15.99;100.00
73103;BME280;61294;65.988;29.172;2023-01-06T07:08:56;99333.34;;;-15.98;100.00
73103;BME280;61294;65.988;29.172;2023-01-06T07:11:21;99365.31;;;-15.83;100.00
73103;BME280;61294;65.988;29.172;2023-01-06T07:13:47;99323.72;;;-16.09;100.00
73103;BME280;61294;65.988;29.172;2023-01-06T07:16:13;99332.03;;;-15.94;100.00
73103;BME280;61294;65.988;29.172;2023-01-06T07:18:39;99363.13;;;-15.79;100.00
73103;BME280;61294;65.988;29.172;2023-01-06T07:21:05;99360.81;;;-15.85;100.00
73103;BME280;61294;65.988;29.172;2023-01-06T07:23:32;99362.47;;;-15.86;100.00
73103;BME280;61294;65.988;29.172;2023-01-06T07:25:59;99359.03;;;-15.86;100.00
73103;BME280;61294;65.988;29.172;2023-01-06T07:28:26;99363.50;;;-15.84;100.00
73103;BME280;61294;65.988;29.172;2023-01-06T07:30:53;99371.88;;;-15.76;100.00
73103;BME280;61294;65.988;29.172;2023-01-06T07:33:19;99328.13;;;-16.00;100.00
73103;BME280;61294;65.988;29.172;2023-01-06T07:35:45;99372.94;;;-15.74;100.00
73103;BME280;61294;65.988;29.172;2023-01-06T07:38:11;99339.22;;;-15.90;100.00
73103;BME280;61294;65.988;29.172;2023-01-06T07:40:37;99372.06;;;-15.74;100.00
73103;BME280;61294;65.988;29.172;2023-01-06T07:43:07;99342.88;;;-15.95;100.00
73103;BME280;61294;65.988;29.172;2023-01-06T07:45:34;99345.81;;;-16.00;100.00
73103;BME280;61294;65.988;29.172;2023-01-06T07:48:00;99336.69;;;-15.90;100.00
73103;BME280;61294;65.988;29.172;2023-01-06T07:50:26;99379.66;;;-15.74;100.00
73103;BME280;61294;65.988;29.172;2023-01-06T07:52:53;99349.31;;;-15.90;100.00
73103;BME280;61294;65.988;29.172;2023-01-06T07:55:21;99386.25;;;-15.68;100.00
73103;BME280;61294;65.988;29.172;2023-01-06T07:57:47;99348.38;;;-15.84;100.00
73103;BME280;61294;65.988;29.172;2023-01-06T08:00:13;99351.38;;;-15.79;100.00
73103;BME280;61294;65.988;29.172;2023-01-06T08:02:39;99352.19;;;-15.71;100.00
73103;BME280;61294;65.988;29.172;2023-01-06T08:05:04;99341.19;;;-15.72;100.00
73103;BME280;61294;65.988;29.172;2023-01-06T08:07:30;99358.84;;;-15.72;100.00
73103;BME280;61294;65.988;29.172;2023-01-06T08:09:56;99393.34;;;-15.56;100.00
73103;BME280;61294;65.988;29.172;2023-01-06T08:12:22;99352.38;;;-15.86;100.00
73103;BME280;61294;65.988;29.172;2023-01-06T08:14:47;99360.97;;;-15.68;100.00
73103;BME280;61294;65.988;29.172;2023-01-06T08:17:13;99373.16;;;-15.56;100.00
73103;BME280;61294;65.988;29.172;2023-01-06T08:19:39;99385.38;;;-15.52;100.00
73103;BME280;61294;65.988;29.172;2023-01-06T08:22:05;99390.81;;;-15.56;100.00
73103;BME280;61294;65.988;29.172;2023-01-06T08:24:31;99346.06;;;-15.73;100.00
73103;BME280;61294;65.988;29.172;2023-01-06T08:26:57;99379.75;;;-15.66;100.00
73103;BME280;61294;65.988;29.172;2023-01-06T08:29:26;99340.63;;;-15.85;100.00
73103;BME280;61294;65.988;29.172;2023-01-06T08:31:53;99391.81;;;-15.63;100.00
73103;BME280;61294;65.988;29.172;2023-01-06T08:34:19;99354.50;;;-15.82;100.00
73103;BME280;61294;65.988;29.172;2023-01-06T08:36:45;99367.50;;;-15.70;100.00
73103;BME280;61294;65.988;29.172;2023-01-06T08:39:12;99370.84;;;-15.62;100.00
73103;BME280;61294;65.988;29.172;2023-01-06T08:41:39;99375.03;;;-15.63;100.00
73103;BME280;61294;65.988;29.172;2023-01-06T08:44:05;99377.78;;;-15.68;100.00
73103;BME280;61294;65.988;29.172;2023-01-06T08:46:31;99355.13;;;-15.91;100.00
73103;BME280;61294;65.988;29.172;2023-01-06T08:48:58;99353.72;;;-15.96;100.00
73103;BME280;61294;65.988;29.172;2023-01-06T08:51:27;99397.81;;;-15.70;100.00
73103;BME280;61294;65.988;29.172;2023-01-06T08:53:58;99359.94;;;-15.86;100.00
73103;BME280;61294;65.988;29.172;2023-01-06T08:56:26;99365.38;;;-15.90;100.00
73103;BME280;61294;65.988;29.172;2023-01-06T08:58:59;99400.91;;;-15.72;100.00
73103;BME280;61294;65.988;29.172;2023-01-06T09:01:33;99390.97;;;-15.71;100.00
73103;BME280;61294;65.988;29.172;2023-01-06T09:04:04;99404.66;;;-15.69;100.00
73103;BME280;61294;65.988;29.172;2023-01-06T09:06:31;99389.09;;;-15.65;100.00
73103;BME280;61294;65.988;29.172;2023-01-06T09:08:57;99397.41;;;-15.66;100.00
73103;BME280;61294;65.988;29.172;2023-01-06T09:11:23;99392.06;;;-15.53;100.00
73103;BME280;61294;65.988;29.172;2023-01-06T09:13:50;99344.09;;;-15.76;100.00
73103;BME280;61294;65.988;29.172;2023-01-06T09:16:16;99351.06;;;-15.82;100.00
73103;BME280;61294;65.988;29.172;2023-01-06T09:18:42;99349.47;;;-15.89;100.00
73103;BME280;61294;65.988;29.172;2023-01-06T09:21:15;99343.31;;;-15.84;100.00
73103;BME280;61294;65.988;29.172;2023-01-06T09:23:42;99392.47;;;-15.57;100.00
73103;BME280;61294;65.988;29.172;2023-01-06T09:26:08;99385.63;;;-15.58;100.00
73103;BME280;61294;65.988;29.172;2023-01-06T09:28:34;99382.94;;;-15.59;100.00
73103;BME280;61294;65.988;29.172;2023-01-06T09:31:00;99381.91;;;-15.46;100.00
73103;BME280;61294;65.988;29.172;2023-01-06T09:33:26;99332.81;;;-15.64;100.00
73103;BME280;61294;65.988;29.172;2023-01-06T09:35:52;99374.88;;;-15.48;100.00
73103;BME280;61294;65.988;29.172;2023-01-06T09:38:18;99378.38;;;-15.39;100.00
73103;BME280;61294;65.988;29.172;2023-01-06T09:44:12;99374.16;;;-14.99;100.00
73103;BME280;61294;65.988;29.172;2023-01-06T09:46:43;99327.13;;;-15.54;100.00
73103;BME280;61294;65.988;29.172;2023-01-06T09:49:26;99325.41;;;-15.62;100.00
73103;BME280;61294;65.988;29.172;2023-01-06T09:52:02;99361.59;;;-15.38;100.00
73103;BME280;61294;65.988;29.172;2023-01-06T09:54:36;99322.78;;;-15.55;100.00
73103;BME280;61294;65.988;29.172;2023-01-06T09:57:21;99350.66;;;-15.46;100.00
73103;BME280;61294;65.988;29.172;2023-01-06T09:59:59;99322.47;;;-15.58;100.00
73103;BME280;61294;65.988;29.172;2023-01-06T10:02:35;99348.56;;;-15.34;100.00
73103;BME280;61294;65.988;29.172;2023-01-06T10:05:18;99359.25;;;-15.37;100.00
73103;BME280;61294;65.988;29.172;2023-01-06T10:08:00;99284.13;;;-15.78;100.00
73103;BME280;61294;65.988;29.172;2023-01-06T10:10:49;99347.97;;;-15.48;100.00
73103;BME280;61294;65.988;29.172;2023-01-06T10:21:46;99367.38;;;-15.23;100.00
73103;BME280;61294;65.988;29.172;2023-01-06T10:26:50;99347.09;;;-15.16;100.00
73103;BME280;61294;65.988;29.172;2023-01-06T10:29:20;99364.38;;;-15.12;100.00
73103;BME280;61294;65.988;29.172;2023-01-06T10:31:47;99355.84;;;-15.21;100.00
73103;BME280;61294;65.988;29.172;2023-01-06T10:34:21;99356.00;;;-15.20;100.00
73103;BME280;61294;65.988;29.172;2023-01-06T10:39:28;99366.66;;;-15.06;100.00
73103;BME280;61294;65.988;29.172;2023-01-06T10:44:53;99328.00;;;-14.89;100.00
73103;BME280;61294;65.988;29.172;2023-01-06T10:47:29;99323.41;;;-14.69;100.00
73103;BME280;61294;65.988;29.172;2023-01-06T10:49:57;99325.69;;;-14.54;100.00
73103;BME280;61294;65.988;29.172;2023-01-06T10:52:25;99312.09;;;-14.39;100.00
73103;BME280;61294;65.988;29.172;2023-01-06T10:54:58;99353.22;;;-14.33;100.00
73103;BME280;61294;65.988;29.172;2023-01-06T10:57:32;99342.13;;;-14.42;100.00
73103;BME280;61294;65.988;29.172;2023-01-06T11:00:18;99295.88;;;-14.66;100.00
73103;BME280;61294;65.988;29.172;2023-01-06T11:02:53;99328.78;;;-14.57;100.00
73103;BME280;61294;65.988;29.172;2023-01-06T11:05:27;99341.84;;;-14.70;100.00
73103;BME280;61294;65.988;29.172;2023-01-06T11:10:51;99334.03;;;-14.96;100.00
73103;BME280;61294;65.988;29.172;2023-01-06T11:13:28;99324.59;;;-15.06;100.00
73103;BME280;61294;65.988;29.172;2023-01-06T11:15:55;99300.16;;;-15.14;100.00
73103;BME280;61294;65.988;29.172;2023-01-06T11:18:29;99321.81;;;-15.00;100.00
73103;BME280;61294;65.988;29.172;2023-01-06T11:21:08;99274.53;;;-15.33;100.00
73103;BME280;61294;65.988;29.172;2023-01-06T11:23:37;99279.13;;;-15.38;100.00
73103;BME280;61294;65.988;29.172;2023-01-06T11:28:38;99315.97;;;-15.24;100.00
73103;BME280;61294;65.988;29.172;2023-01-06T11:33:53;99311.25;;;-15.37;100.00
73103;BME280;61294;65.988;29.172;2023-01-06T11:36:23;99311.47;;;-15.42;100.00
73103;BME280;61294;65.988;29.172;2023-01-06T11:38:55;99290.13;;;-15.53;100.00
73103;BME280;61294;65.988;29.172;2023-01-06T11:41:32;99299.66;;;-15.51;100.00
73103;BME280;61294;65.988;29.172;2023-01-06T11:44:07;99306.44;;;-15.58;100.00
73103;BME280;61294;65.988;29.172;2023-01-06T11:46:36;99263.41;;;-15.83;100.00
73103;BME280;61294;65.988;29.172;2023-01-06T11:49:14;99308.13;;;-15.66;100.00
73103;BME280;61294;65.988;29.172;2023-01-06T11:54:30;99270.66;;;-15.86;100.00
73103;BME280;61294;65.988;29.172;2023-01-06T11:57:27;99284.69;;;-15.81;100.00
73103;BME280;61294;65.988;29.172;2023-01-06T12:00:21;99297.31;;;-15.81;100.00
73103;BME280;61294;65.988;29.172;2023-01-06T12:13:53;99296.06;;;-15.85;100.00
73103;BME280;61294;65.988;29.172;2023-01-06T12:16:43;99261.88;;;-16.06;100.00
73103;BME280;61294;65.988;29.172;2023-01-06T12:19:19;99294.28;;;-15.70;100.00
73103;BME280;61294;65.988;29.172;2023-01-06T12:21:51;99299.25;;;-15.63;100.00
73103;BME280;61294;65.988;29.172;2023-01-06T12:24:20;99277.34;;;-15.87;100.00
73103;BME280;61294;65.988;29.172;2023-01-06T12:26:48;99271.63;;;-15.77;100.00
73103;BME280;61294;65.988;29.172;2023-01-06T12:29:19;99300.63;;;-15.73;100.00
73103;BME280;61294;65.988;29.172;2023-01-06T12:34:41;99264.56;;;-15.88;100.00
73103;BME280;61294;65.988;29.172;2023-01-06T12:37:37;99252.03;;;-15.79;100.00
73103;BME280;61294;65.988;29.172;2023-01-06T12:40:16;99276.84;;;-15.75;100.00
73103;BME280;61294;65.988;29.172;2023-01-06T12:42:57;99300.38;;;-15.68;100.00
73103;BME280;61294;65.988;29.172;2023-01-06T12:45:35;99283.78;;;-15.66;100.00
73103;BME280;61294;65.988;29.172;2023-01-06T12:48:15;99288.25;;;-15.79;100.00
73103;BME280;61294;65.988;29.172;2023-01-06T12:50:57;99270.34;;;-15.89;100.00
73103;BME280;61294;65.988;29.172;2023-01-06T12:53:31;99233.25;;;-16.13;100.00
73103;BME280;61294;65.988;29.172;2023-01-06T12:56:42;99241.47;;;-16.07;100.00
73103;BME280;61294;65.988;29.172;2023-01-06T12:59:25;99269.75;;;-16.03;100.00
73103;BME280;61294;65.988;29.172;2023-01-06T13:02:35;99244.72;;;-16.24;100.00
73103;BME280;61294;65.988;29.172;2023-01-06T13:16:55;99262.66;;;-16.14;100.00
73103;BME280;61294;65.988;29.172;2023-01-06T13:22:00;99282.31;;;-16.19;100.00
73103;BME280;61294;65.988;29.172;2023-01-06T13:30:40;99254.84;;;-16.08;100.00
73103;BME280;61294;65.988;29.172;2023-01-06T13:35:34;99254.16;;;-16.15;100.00
73103;BME280;61294;65.988;29.172;2023-01-06T13:40:59;99226.25;;;-16.16;100.00
73103;BME280;61294;65.988;29.172;2023-01-06T13:43:29;99281.63;;;-16.02;100.00
73103;BME280;61294;65.988;29.172;2023-01-06T13:46:02;99274.47;;;-16.06;100.00
73103;BME280;61294;65.988;29.172;2023-01-06T13:48:35;99271.09;;;-16.13;100.00
73103;BME280;61294;65.988;29.172;2023-01-06T13:51:08;99212.00;;;-16.55;100.00
73103;BME280;61294;65.988;29.172;2023-01-06T13:53:40;99272.28;;;-16.26;100.00
73103;BME280;61294;65.988;29.172;2023-01-06T13:58:44;99263.16;;;-16.09;100.00
73103;BME280;61294;65.988;29.172;2023-01-06T14:03:47;99262.59;;;-15.91;100.00
73103;BME280;61294;65.988;29.172;2023-01-06T14:09:02;99273.66;;;-15.98;100.00
73103;BME280;61294;65.988;29.172;2023-01-06T14:11:33;99237.56;;;-16.28;100.00
73103;BME280;61294;65.988;29.172;2023-01-06T14:14:02;99196.47;;;-16.51;100.00
73103;BME280;61294;65.988;29.172;2023-01-06T14:16:48;99265.81;;;-16.24;100.00
73103;BME280;61294;65.988;29.172;2023-01-06T14:19:20;99278.63;;;-16.06;100.00
73103;BME280;61294;65.988;29.172;2023-01-06T14:21:49;99273.31;;;-16.17;100.00
73103;BME280;61294;65.988;29.172;2023-01-06T14:24:24;99271.72;;;-16.23;100.00
73103;BME280;61294;65.988;29.172;2023-01-06T14:27:00;99273.03;;;-16.27;100.00
73103;BME280;61294;65.988;29.172;2023-01-06T14:34:37;99229.72;;;-16.62;100.00
73103;BME280;61294;65.988;29.172;2023-01-06T14:37:05;99256.94;;;-16.67;100.00
73103;BME280;61294;65.988;29.172;2023-01-06T14:39:37;99235.84;;;-16.60;100.00
73103;BME280;61294;65.988;29.172;2023-01-06T14:42:35;99283.03;;;-16.36;100.00
73103;BME280;61294;65.988;29.172;2023-01-06T14:45:02;99289.22;;;-16.25;100.00
73103;BME280;61294;65.988;29.172;2023-01-06T14:47:33;99284.13;;;-16.18;100.00
73103;BME280;61294;65.988;29.172;2023-01-06T14:50:13;99285.16;;;-15.92;100.00